sensor_id;sensor_type;location;lat;lon;timestamp;pressure;altitude;pressure_sealevel;temperature;humidity
48553;BME280;34335;51.566;6.994;2023-05-02T00:01:32;101252.84;;;10.34;100.00
48553;BME280;34335;51.566;6.994;2023-05-02T00:03:57;101259.50;;;10.06;100.00
48553;BME280;34335;51.566;6.994;2023-05-02T00:06:23;101262.13;;;10.09;100.00
48553;BME280;34335;51.566;6.994;2023-05-02T00:08:48;101272.19;;;9.75;100.00
48553;BME280;34335;51.566;6.994;2023-05-02T00:11:14;101267.03;;;9.81;100.00
48553;BME280;34335;51.566;6.994;2023-05-02T00:13:39;101274.56;;;9.58;100.00
48553;BME280;34335;51.566;6.994;2023-05-02T00:16:05;101269.38;;;9.59;100.00
48553;BME280;34335;51.566;6.994;2023-05-02T00:18:31;101267.84;;;9.74;100.00
48553;BME280;34335;51.566;6.994;2023-05-02T00:20:56;101266.94;;;9.72;100.00
48553;BME280;34335;51.566;6.994;2023-05-02T00:23:22;101266.88;;;9.65;100.00
48553;BME280;34335;51.566;6.994;2023-05-02T00:25:48;101276.38;;;9.63;100.00
48553;BME280;34335;51.566;6.994;2023-05-02T00:28:13;101274.63;;;9.62;100.00
48553;BME280;34335;51.566;6.994;2023-05-02T00:30:45;101279.91;;;9.70;100.00
48553;BME280;34335;51.566;6.994;2023-05-02T00:33:11;101276.47;;;9.73;100.00
48553;BME280;34335;51.566;6.994;2023-05-02T00:35:37;101276.47;;;9.73;100.00
48553;BME280;34335;51.566;6.994;2023-05-02T00:38:02;101280.66;;;9.61;100.00
48553;BME280;34335;51.566;6.994;2023-05-02T00:40:28;101274.63;;;9.64;100.00
48553;BME280;34335;51.566;6.994;2023-05-02T00:42:53;101279.88;;;9.65;100.00
48553;BME280;34335;51.566;6.994;2023-05-02T00:45:18;101269.38;;;9.59;100.00
48553;BME280;34335;51.566;6.994;2023-05-02T00:47:44;101272.88;;;9.60;100.00
48553;BME280;34335;51.566;6.994;2023-05-02T00:50:09;101263.22;;;9.52;100.00
48553;BME280;34335;51.566;6.994;2023-05-02T00:52:36;101265.75;;;9.45;100.00
48553;BME280;34335;51.566;6.994;2023-05-02T00:55:01;101274.47;;;9.48;100.00
48553;BME280;34335;51.566;6.994;2023-05-02T00:57:27;101267.50;;;9.46;100.00
48553;BME280;34335;51.566;6.994;2023-05-02T00:59:53;101275.31;;;9.47;100.00
48553;BME280;34335;51.566;6.994;2023-05-02T01:02:46;101274.34;;;9.41;100.00
48553;BME280;34335;51.566;6.994;2023-05-02T01:05:29;101281.25;;;9.39;100.00
48553;BME280;34335;51.566;6.994;2023-05-02T01:08:19;101289.00;;;9.37;100.00
48553;BME280;34335;51.566;6.994;2023-05-02T01:10:54;101290.94;;;9.52;100.00
48553;BME280;34335;51.566;6.994;2023-05-02T01:13:26;101291.78;;;9.49;100.00
48553;BME280;34335;51.566;6.994;2023-05-02T01:15:55;101302.00;;;9.39;100.00
48553;BME280;34335;51.566;6.994;2023-05-02T01:18:23;101294.22;;;9.39;100.00
48553;BME280;34335;51.566;6.994;2023-05-02T01:21:00;101298.56;;;9.40;100.00
48553;BME280;34335;51.566;6.994;2023-05-02T01:28:58;101299.47;;;9.43;100.00
48553;BME280;34335;51.566;6.994;2023-05-02T01:31:25;101302.94;;;9.44;100.00
48553;BME280;34335;51.566;6.994;2023-05-02T01:33:54;101307.38;;;9.51;100.00
48553;BME280;34335;51.566;6.994;2023-05-02T01:36:21;101306.47;;;9.49;100.00
48553;BME280;34335;51.566;6.994;2023-05-02T01:38:50;101311.66;;;9.46;100.00
48553;BME280;34335;51.566;6.994;2023-05-02T01:41:17;101312.50;;;9.45;100.00
48553;BME280;34335;51.566;6.994;2023-05-02T01:43:45;101319.44;;;9.46;100.00
48553;BME280;34335;51.566;6.994;2023-05-02T01:46:12;101315.94;;;9.45;100.00
48553;BME280;34335;51.566;6.994;2023-05-02T01:48:40;101323.84;;;9.53;100.00
48553;BME280;34335;51.566;6.994;2023-05-02T01:51:08;101322.16;;;9.57;100.00
48553;BME280;34335;51.566;6.994;2023-05-02T01:53:37;101320.41;;;9.56;100.00
48553;BME280;34335;51.566;6.994;2023-05-02T01:56:04;101327.31;;;9.54;100.00
48553;BME280;34335;51.566;6.994;2023-05-02T01:58:31;101334.19;;;9.50;100.00
48553;BME280;34335;51.566;6.994;2023-05-02T02:00:58;101330.84;;;9.59;100.00
48553;BME280;34335;51.566;6.994;2023-05-02T02:03:27;101333.34;;;9.52;100.00
48553;BME280;34335;51.566;6.994;2023-05-02T02:05:54;101336.78;;;9.50;100.00
48553;BME280;34335;51.566;6.994;2023-05-02T02:08:20;101335.84;;;9.45;100.00
48553;BME280;34335;51.566;6.994;2023-05-02T02:10:51;101345.41;;;9.49;100.00
48553;BME280;34335;51.566;6.994;2023-05-02T02:13:30;101348.13;;;9.57;100.00
48553;BME280;34335;51.566;6.994;2023-05-02T02:16:00;101348.91;;;9.52;100.00
48553;BME280;34335;51.566;6.994;2023-05-02T02:18:28;101347.22;;;9.51;100.00
48553;BME280;34335;51.566;6.994;2023-05-02T02:20:58;101352.41;;;9.53;100.00
48553;BME280;34335;51.566;6.994;2023-05-02T02:23:25;101353.25;;;9.52;100.00
48553;BME280;34335;51.566;6.994;2023-05-02T02:25:53;101355.00;;;9.53;100.00
48553;BME280;34335;51.566;6.994;2023-05-02T02:28:19;101348.06;;;9.52;100.00
48553;BME280;34335;51.566;6.994;2023-05-02T02:30:44;101360.28;;;9.59;100.00
48553;BME280;34335;51.566;6.994;2023-05-02T02:33:10;101355.91;;;9.57;100.00
48553;BME280;34335;51.566;6.994;2023-05-02T02:35:52;101361.16;;;9.61;100.00
48553;BME280;34335;51.566;6.994;2023-05-02T02:39:01;101363.75;;;9.60;100.00
48553;BME280;34335;51.566;6.994;2023-05-02T02:41:26;101363.66;;;9.52;100.00
48553;BME280;34335;51.566;6.994;2023-05-02T02:46:46;101365.50;;;9.61;100.00
48553;BME280;34335;51.566;6.994;2023-05-02T02:49:37;101370.66;;;9.59;100.00
48553;BME280;34335;51.566;6.994;2023-05-02T02:52:45;101367.13;;;9.54;100.00
48553;BME280;34335;51.566;6.994;2023-05-02T02:55:35;101369.69;;;9.51;100.00
48553;BME280;34335;51.566;6.994;2023-05-02T03:00:37;101369.81;;;9.60;100.00
48553;BME280;34335;51.566;6.994;2023-05-02T03:03:04;101368.13;;;9.62;100.00
48553;BME280;34335;51.566;6.994;2023-05-02T03:05:31;101371.69;;;9.69;100.00
48553;BME280;34335;51.566;6.994;2023-05-02T03:07:58;101376.81;;;9.64;100.00
48553;BME280;34335;51.566;6.994;2023-05-02T03:10:24;101378.44;;;9.58;100.00
48553;BME280;34335;51.566;6.994;2023-05-02T03:12:49;101376.75;;;9.61;100.00
48553;BME280;34335;51.566;6.994;2023-05-02T03:18:18;101380.25;;;9.63;100.00
48553;BME280;34335;51.566;6.994;2023-05-02T03:20:43;101381.09;;;9.62;100.00
48553;BME280;34335;51.566;6.994;2023-05-02T03:23:08;101383.66;;;9.59;100.00
48553;BME280;34335;51.566;6.994;2023-05-02T03:25:34;101385.50;;;9.66;100.00
48553;BME280;34335;51.566;6.994;2023-05-02T03:27:59;101382.97;;;9.71;100.00
48553;BME280;34335;51.566;6.994;2023-05-02T03:30:24;101381.28;;;9.76;100.00
48553;BME280;34335;51.566;6.994;2023-05-02T03:32:50;101392.44;;;9.69;100.00
48553;BME280;34335;51.566;6.994;2023-05-02T03:35:15;101397.47;;;9.58;100.00
48553;BME280;34335;51.566;6.994;2023-05-02T03:37:41;101394.16;;;9.67;100.00
48553;BME280;34335;51.566;6.994;2023-05-02T03:40:06;101388.97;;;9.69;100.00
48553;BME280;34335;51.566;6.994;2023-05-02T03:42:33;101395.09;;;9.74;100.00
48553;BME280;34335;51.566;6.994;2023-05-02T03:45:08;101403.69;;;9.66;100.00
48553;BME280;34335;51.566;6.994;2023-05-02T03:47:34;101401.09;;;9.66;100.00
48553;BME280;34335;51.566;6.994;2023-05-02T03:50:00;101408.00;;;9.67;100.00
48553;BME280;34335;51.566;6.994;2023-05-02T03:52:26;101415.84;;;9.71;100.00
48553;BME280;34335;51.566;6.994;2023-05-02T03:54:52;101409.66;;;9.62;100.00
48553;BME280;34335;51.566;6.994;2023-05-02T03:57:17;101418.16;;;9.52;100.00
48553;BME280;34335;51.566;6.994;2023-05-02T03:59:43;101416.50;;;9.57;100.00
48553;BME280;34335;51.566;6.994;2023-05-02T04:02:10;101412.28;;;9.64;100.00
48553;BME280;34335;51.566;6.994;2023-05-02T04:04:36;101416.50;;;9.57;100.00
48553;BME280;34335;51.566;6.994;2023-05-02T04:07:01;101430.31;;;9.53;100.00
48553;BME280;34335;51.566;6.994;2023-05-02T04:09:27;101425.19;;;9.59;100.00
48553;BME280;34335;51.566;6.994;2023-05-02T04:11:52;101433.09;;;9.67;100.00
48553;BME280;34335;51.566;6.994;2023-05-02T04:14:18;101434.66;;;9.54;100.00
48553;BME280;34335;51.566;6.994;2023-05-02T04:16:53;101438.09;;;9.51;100.00
48553;BME280;34335;51.566;6.994;2023-05-02T04:19:18;101429.47;;;9.54;100.00
48553;BME280;34335;51.566;6.994;2023-05-02T04:21:44;101440.69;;;9.51;100.00
48553;BME280;34335;51.566;6.994;2023-05-02T04:24:09;101433.88;;;9.60;100.00
48553;BME280;34335;51.566;6.994;2023-05-02T04:26:35;101438.75;;;9.40;100.00
48553;BME280;34335;51.566;6.994;2023-05-02T04:29:00;101445.69;;;9.41;100.00
48553;BME280;34335;51.566;6.994;2023-05-02T04:31:26;101447.44;;;9.42;100.00
48553;BME280;34335;51.566;6.994;2023-05-02T04:33:51;101447.59;;;9.51;100.00
48553;BME280;34335;51.566;6.994;2023-05-02T04:36:16;101455.44;;;9.54;100.00
48553;BME280;34335;51.566;6.994;2023-05-02T04:38:43;101458.88;;;9.53;100.00
48553;BME280;34335;51.566;6.994;2023-05-02T04:41:08;101457.19;;;9.55;100.00
48553;BME280;34335;51.566;6.994;2023-05-02T04:43:33;101472.63;;;9.47;100.00
48553;BME280;34335;51.566;6.994;2023-05-02T04:45:59;101468.41;;;9.54;100.00
48553;BME280;34335;51.566;6.994;2023-05-02T04:48:24;101478.66;;;9.46;100.00
48553;BME280;34335;51.566;6.994;2023-05-02T04:50:51;101487.28;;;9.44;100.00
48553;BME280;34335;51.566;6.994;2023-05-02T04:53:17;101489.22;;;9.57;100.00
48553;BME280;34335;51.566;6.994;2023-05-02T04:55:43;101499.97;;;9.27;100.00
48553;BME280;34335;51.566;6.994;2023-05-02T04:58:08;101496.47;;;9.25;100.00
48553;BME280;34335;51.566;6.994;2023-05-02T05:00:33;101507.47;;;9.10;100.00
48553;BME280;34335;51.566;6.994;2023-05-02T05:02:58;101514.63;;;9.23;100.00
48553;BME280;34335;51.566;6.994;2023-05-02T05:05:24;101520.41;;;9.08;100.00
48553;BME280;34335;51.566;6.994;2023-05-02T05:07:49;101526.44;;;9.06;100.00
48553;BME280;34335;51.566;6.994;2023-05-02T05:10:16;101527.34;;;9.08;100.00
48553;BME280;34335;51.566;6.994;2023-05-02T05:12:42;101533.06;;;8.91;100.00
48553;BME280;34335;51.566;6.994;2023-05-02T05:15:07;101533.03;;;8.88;100.00
48553;BME280;34335;51.566;6.994;2023-05-02T05:17:32;101534.72;;;8.86;100.00
48553;BME280;34335;51.566;6.994;2023-05-02T05:19:58;101544.34;;;8.93;100.00
48553;BME280;34335;51.566;6.994;2023-05-02T05:22:23;101539.34;;;9.02;100.00
48553;BME280;34335;51.566;6.994;2023-05-02T05:24:52;101546.28;;;9.05;100.00
48553;BME280;34335;51.566;6.994;2023-05-02T05:27:18;101540.16;;;8.98;100.00
48553;BME280;34335;51.566;6.994;2023-05-02T05:29:43;101553.28;;;9.08;100.00
48553;BME280;34335;51.566;6.994;2023-05-02T05:32:08;101548.09;;;9.08;100.00
48553;BME280;34335;51.566;6.994;2023-05-02T05:34:34;101546.44;;;9.11;100.00
48553;BME280;34335;51.566;6.994;2023-05-02T05:36:59;101545.72;;;9.20;100.00
48553;BME280;34335;51.566;6.994;2023-05-02T05:39:25;101557.75;;;9.15;100.00
48553;BME280;34335;51.566;6.994;2023-05-02T05:41:50;101556.94;;;9.19;100.00
48553;BME280;34335;51.566;6.994;2023-05-02T05:44:16;101553.66;;;9.29;100.00
48553;BME280;34335;51.566;6.994;2023-05-02T05:46:42;101560.59;;;9.29;100.00
48553;BME280;34335;51.566;6.994;2023-05-02T05:49:07;101575.22;;;9.25;100.00
48553;BME280;34335;51.566;6.994;2023-05-02T05:51:32;101569.63;;;9.03;100.00
48553;BME280;34335;51.566;6.994;2023-05-02T05:53:57;101581.09;;;9.15;100.00
48553;BME280;34335;51.566;6.994;2023-05-02T05:56:23;101570.16;;;9.33;100.00
48553;BME280;34335;51.566;6.994;2023-05-02T05:58:48;101587.72;;;9.48;100.00
48553;BME280;34335;51.566;6.994;2023-05-02T06:01:13;101586.69;;;9.37;100.00
48553;BME280;34335;51.566;6.994;2023-05-02T06:03:39;101585.94;;;9.42;100.00
48553;BME280;34335;51.566;6.994;2023-05-02T06:06:04;101588.41;;;9.36;100.00
48553;BME280;34335;51.566;6.994;2023-05-02T06:08:30;101595.19;;;9.29;100.00
48553;BME280;34335;51.566;6.994;2023-05-02T06:10:55;101590.75;;;9.22;100.00
48553;BME280;34335;51.566;6.994;2023-05-02T06:13:20;101597.03;;;9.35;100.00
48553;BME280;34335;51.566;6.994;2023-05-02T06:15:46;101591.53;;;9.18;100.00
48553;BME280;34335;51.566;6.994;2023-05-02T06:18:11;101597.88;;;9.34;100.00
48553;BME280;34335;51.566;6.994;2023-05-02T06:20:37;101603.78;;;9.25;100.00
48553;BME280;34335;51.566;6.994;2023-05-02T06:23:02;101600.56;;;9.39;100.00
48553;BME280;34335;51.566;6.994;2023-05-02T06:25:28;101605.72;;;9.35;100.00
48553;BME280;34335;51.566;6.994;2023-05-02T06:27:53;101609.34;;;9.45;100.00
48553;BME280;34335;51.566;6.994;2023-05-02T06:30:18;101613.69;;;9.48;100.00
48553;BME280;34335;51.566;6.994;2023-05-02T06:32:44;101616.88;;;9.31;100.00
48553;BME280;34335;51.566;6.994;2023-05-02T06:35:09;101617.00;;;9.38;100.00
48553;BME280;34335;51.566;6.994;2023-05-02T06:37:35;101618.63;;;9.32;100.00
48553;BME280;34335;51.566;6.994;2023-05-02T06:40:01;101629.91;;;9.34;100.00
48553;BME280;34335;51.566;6.994;2023-05-02T06:42:27;101639.81;;;9.54;100.00
48553;BME280;34335;51.566;6.994;2023-05-02T06:44:54;101632.09;;;9.59;100.00
48553;BME280;34335;51.566;6.994;2023-05-02T06:47:20;101639.72;;;9.51;100.00
48553;BME280;34335;51.566;6.994;2023-05-02T06:49:46;101639.28;;;9.26;100.00
48553;BME280;34335;51.566;6.994;2023-05-02T06:52:11;101657.44;;;9.26;100.00
48553;BME280;34335;51.566;6.994;2023-05-02T06:54:36;101663.34;;;9.19;100.00
48553;BME280;34335;51.566;6.994;2023-05-02T06:57:02;101666.47;;;9.02;100.00
48553;BME280;34335;51.566;6.994;2023-05-02T06:59:28;101665.16;;;9.22;100.00
48553;BME280;34335;51.566;6.994;2023-05-02T07:01:53;101673.09;;;8.88;100.00
48553;BME280;34335;51.566;6.994;2023-05-02T07:04:18;101674.25;;;9.01;100.00
48553;BME280;34335;51.566;6.994;2023-05-02T07:06:44;101687.75;;;9.27;100.00
48553;BME280;34335;51.566;6.994;2023-05-02T07:09:09;101700.94;;;8.95;100.00
48553;BME280;34335;51.566;6.994;2023-05-02T07:11:35;101697.81;;;8.72;100.00
48553;BME280;34335;51.566;6.994;2023-05-02T07:14:01;101705.91;;;8.86;100.00
48553;BME280;34335;51.566;6.994;2023-05-02T07:16:26;101709.63;;;8.97;100.00
48553;BME280;34335;51.566;6.994;2023-05-02T07:18:52;101715.69;;;8.99;100.00
48553;BME280;34335;51.566;6.994;2023-05-02T07:21:17;101724.16;;;8.89;100.00
48553;BME280;34335;51.566;6.994;2023-05-02T07:23:43;101732.25;;;9.03;100.00
48553;BME280;34335;51.566;6.994;2023-05-02T07:26:08;101719.66;;;9.22;100.00
48553;BME280;34335;51.566;6.994;2023-05-02T07:28:33;101717.16;;;9.26;100.00
48553;BME280;34335;51.566;6.994;2023-05-02T07:30:59;101735.63;;;9.00;100.00
48553;BME280;34335;51.566;6.994;2023-05-02T07:33:24;101732.47;;;9.14;100.00
48553;BME280;34335;51.566;6.994;2023-05-02T07:35:50;101731.31;;;9.01;100.00
48553;BME280;34335;51.566;6.994;2023-05-02T07:38:15;101738.16;;;8.97;100.00
48553;BME280;34335;51.566;6.994;2023-05-02T07:40:41;101745.03;;;8.95;100.00
48553;BME280;34335;51.566;6.994;2023-05-02T07:43:07;101743.34;;;8.59;100.00
48553;BME280;34335;51.566;6.994;2023-05-02T07:45:33;101748.88;;;8.75;100.00
48553;BME280;34335;51.566;6.994;2023-05-02T07:47:59;101745.63;;;8.83;100.00
48553;BME280;34335;51.566;6.994;2023-05-02T07:50:24;101757.00;;;8.90;100.00
48553;BME280;34335;51.566;6.994;2023-05-02T07:52:51;101765.69;;;8.91;100.00
48553;BME280;34335;51.566;6.994;2023-05-02T07:55:17;101760.28;;;9.21;100.00
48553;BME280;34335;51.566;6.994;2023-05-02T07:57:42;101771.56;;;9.22;100.00
48553;BME280;34335;51.566;6.994;2023-05-02T08:00:08;101772.03;;;9.03;100.00
48553;BME280;34335;51.566;6.994;2023-05-02T08:02:34;101782.56;;;8.73;100.00
48553;BME280;34335;51.566;6.994;2023-05-02T08:05:01;101782.50;;;8.36;100.00
48553;BME280;34335;51.566;6.994;2023-05-02T08:07:26;101792.16;;;8.08;100.00
48553;BME280;34335;51.566;6.994;2023-05-02T08:09:52;101797.66;;;8.21;100.00
48553;BME280;34335;51.566;6.994;2023-05-02T08:12:17;101792.88;;;8.36;100.00
48553;BME280;34335;51.566;6.994;2023-05-02T08:14:42;101795.56;;;8.75;100.00
48553;BME280;34335;51.566;6.994;2023-05-02T08:17:07;101803.03;;;8.29;100.00
48553;BME280;34335;51.566;6.994;2023-05-02T08:19:33;101809.34;;;8.72;100.00
48553;BME280;34335;51.566;6.994;2023-05-02T08:21:58;101820.66;;;8.08;100.00
48553;BME280;34335;51.566;6.994;2023-05-02T08:24:23;101810.53;;;8.50;100.00
48553;BME280;34335;51.566;6.994;2023-05-02T08:26:49;101816.16;;;8.35;100.00
48553;BME280;34335;51.566;6.994;2023-05-02T08:29:15;101821.06;;;8.56;100.00
48553;BME280;34335;51.566;6.994;2023-05-02T08:31:40;101831.72;;;8.03;100.00
48553;BME280;34335;51.566;6.994;2023-05-02T08:34:05;101837.06;;;8.09;100.00
48553;BME280;34335;51.566;6.994;2023-05-02T08:36:31;101835.97;;;8.01;100.00
48553;BME280;34335;51.566;6.994;2023-05-02T08:38:56;101840.69;;;7.84;100.00
48553;BME280;34335;51.566;6.994;2023-05-02T08:41:22;101843.19;;;8.45;100.00
48553;BME280;34335;51.566;6.994;2023-05-02T08:43:48;101845.84;;;8.46;100.00
48553;BME280;34335;51.566;6.994;2023-05-02T08:46:15;101850.97;;;8.77;100.00
48553;BME280;34335;51.566;6.994;2023-05-02T08:48:42;101858.75;;;8.78;100.00
48553;BME280;34335;51.566;6.994;2023-05-02T08:51:12;101857.53;;;8.99;100.00
48553;BME280;34335;51.566;6.994;2023-05-02T08:53:39;101868.94;;;9.06;100.00
48553;BME280;34335;51.566;6.994;2023-05-02T08:56:09;101862.66;;;8.61;100.00
48553;BME280;34335;51.566;6.994;2023-05-02T08:58:36;101870.16;;;8.50;100.00
48553;BME280;34335;51.566;6.994;2023-05-02T09:01:08;101860.38;;;8.41;100.00
48553;BME280;34335;51.566;6.994;2023-05-02T09:03:35;101873.47;;;8.46;100.00
48553;BME280;34335;51.566;6.994;2023-05-02T09:06:10;101866.44;;;8.73;100.00
48553;BME280;34335;51.566;6.994;2023-05-02T09:08:40;101871.94;;;8.86;100.00
48553;BME280;34335;51.566;6.994;2023-05-02T09:11:06;101873.66;;;9.22;100.00
48553;BME280;34335;51.566;6.994;2023-05-02T09:13:40;101874.66;;;9.27;100.00
48553;BME280;34335;51.566;6.994;2023-05-02T09:18:43;101886.31;;;9.46;100.00
48553;BME280;34335;51.566;6.994;2023-05-02T09:21:14;101886.44;;;9.52;100.00
48553;BME280;34335;51.566;6.994;2023-05-02T09:23:56;101893.50;;;9.58;100.00
48553;BME280;34335;51.566;6.994;2023-05-02T09:26:26;101895.00;;;9.47;100.00
48553;BME280;34335;51.566;6.994;2023-05-02T09:28:54;101905.22;;;9.39;100.00
48553;BME280;34335;51.566;6.994;2023-05-02T09:31:21;101898.84;;;8.89;100.00
48553;BME280;34335;51.566;6.994;2023-05-02T09:33:47;101907.53;;;9.28;100.00
48553;BME280;34335;51.566;6.994;2023-05-02T09:36:15;101907.63;;;9.31;100.00
48553;BME280;34335;51.566;6.994;2023-05-02T09:38:45;101912.75;;;9.66;100.00
48553;BME280;34335;51.566;6.994;2023-05-02T09:41:11;101916.78;;;9.93;100.00
48553;BME280;34335;51.566;6.994;2023-05-02T09:43:37;101910.22;;;10.12;100.00
48553;BME280;34335;51.566;6.994;2023-05-02T09:46:05;101906.97;;;10.23;100.00
48553;BME280;34335;51.566;6.994;2023-05-02T09:48:32;101914.56;;;10.12;100.00
48553;BME280;34335;51.566;6.994;2023-05-02T09:50:57;101919.03;;;9.78;100.00
48553;BME280;34335;51.566;6.994;2023-05-02T09:53:27;101913.09;;;10.25;100.00
48553;BME280;34335;51.566;6.994;2023-05-02T09:56:02;101912.00;;;10.15;100.00
48553;BME280;34335;51.566;6.994;2023-05-02T09:58:28;101918.47;;;10.34;100.00
48553;BME280;34335;51.566;6.994;2023-05-02T10:00:55;101919.78;;;10.12;100.00
48553;BME280;34335;51.566;6.994;2023-05-02T10:03:23;101920.69;;;10.58;100.00
48553;BME280;34335;51.566;6.994;2023-05-02T10:05:49;101917.84;;;10.46;100.00
48553;BME280;34335;51.566;6.994;2023-05-02T10:08:15;101929.44;;;10.62;100.00
48553;BME280;34335;51.566;6.994;2023-05-02T10:10:46;101925.09;;;11.13;100.00
48553;BME280;34335;51.566;6.994;2023-05-02T10:13:13;101916.22;;;11.02;100.00
48553;BME280;34335;51.566;6.994;2023-05-02T10:15:42;101926.97;;;11.20;100.00
48553;BME280;34335;51.566;6.994;2023-05-02T10:18:13;101927.97;;;11.30;100.00
48553;BME280;34335;51.566;6.994;2023-05-02T10:20:47;101929.44;;;11.14;100.00
48553;BME280;34335;51.566;6.994;2023-05-02T10:23:15;101932.19;;;11.20;100.00
48553;BME280;34335;51.566;6.994;2023-05-02T10:25:41;101930.94;;;11.53;100.00
48553;BME280;34335;51.566;6.994;2023-05-02T10:28:08;101929.09;;;11.46;100.00
48553;BME280;34335;51.566;6.994;2023-05-02T10:30:34;101925.69;;;11.52;100.00
48553;BME280;34335;51.566;6.994;2023-05-02T10:33:00;101936.78;;;10.39;100.00
48553;BME280;34335;51.566;6.994;2023-05-02T10:35:27;101931.81;;;10.99;100.00
48553;BME280;34335;51.566;6.994;2023-05-02T10:37:54;101945.13;;;10.67;100.00
48553;BME280;34335;51.566;6.994;2023-05-02T10:40:20;101945.13;;;10.67;100.00
48553;BME280;34335;51.566;6.994;2023-05-02T10:42:47;101935.47;;;11.10;100.00
48553;BME280;34335;51.566;6.994;2023-05-02T10:45:35;101934.03;;;11.31;100.00
48553;BME280;34335;51.566;6.994;2023-05-02T10:48:21;101940.81;;;10.69;99.21
48553;BME280;34335;51.566;6.994;2023-05-02T10:50:48;101933.25;;;11.36;100.00
48553;BME280;34335;51.566;6.994;2023-05-02T10:53:23;101938.31;;;11.24;97.73
48553;BME280;34335;51.566;6.994;2023-05-02T10:58:39;101935.69;;;10.72;97.55
48553;BME280;34335;51.566;6.994;2023-05-02T11:01:37;101932.41;;;11.37;97.78
48553;BME280;34335;51.566;6.994;2023-05-02T11:04:09;101931.97;;;11.08;99.81
48553;BME280;34335;51.566;6.994;2023-05-02T11:06:37;101947.22;;;10.86;93.25
48553;BME280;34335;51.566;6.994;2023-05-02T11:11:47;101941.13;;;10.86;92.67
48553;BME280;34335;51.566;6.994;2023-05-02T11:19:23;101956.47;;;11.78;97.80
48553;BME280;34335;51.566;6.994;2023-05-02T11:21:49;101955.72;;;11.28;81.59
48553;BME280;34335;51.566;6.994;2023-05-02T11:24:37;101955.63;;;11.80;93.76
48553;BME280;34335;51.566;6.994;2023-05-02T11:30:09;101954.69;;;12.40;88.86
48553;BME280;34335;51.566;6.994;2023-05-02T11:35:18;101957.38;;;11.81;86.83
48553;BME280;34335;51.566;6.994;2023-05-02T11:38:01;101958.41;;;11.94;87.97
48553;BME280;34335;51.566;6.994;2023-05-02T11:40:28;101961.72;;;11.82;89.03
48553;BME280;34335;51.566;6.994;2023-05-02T11:42:54;101952.13;;;11.21;80.36
48553;BME280;34335;51.566;6.994;2023-05-02T11:45:21;101960.63;;;11.66;88.88
48553;BME280;34335;51.566;6.994;2023-05-02T11:47:49;101963.44;;;11.79;85.82
48553;BME280;34335;51.566;6.994;2023-05-02T11:50:16;101964.28;;;11.78;83.92
48553;BME280;34335;51.566;6.994;2023-05-02T11:52:43;101965.88;;;12.32;89.65
48553;BME280;34335;51.566;6.994;2023-05-02T11:55:13;101969.44;;;12.39;83.58
48553;BME280;34335;51.566;6.994;2023-05-02T11:57:39;101976.09;;;12.14;79.52
48553;BME280;34335;51.566;6.994;2023-05-02T12:00:05;101976.63;;;11.91;80.18
48553;BME280;34335;51.566;6.994;2023-05-02T12:02:50;101978.00;;;12.29;81.07
48553;BME280;34335;51.566;6.994;2023-05-02T12:05:26;101981.78;;;12.54;74.10
48553;BME280;34335;51.566;6.994;2023-05-02T12:07:52;101976.63;;;13.50;83.32
48553;BME280;34335;51.566;6.994;2023-05-02T12:10:17;101983.81;;;13.85;74.08
48553;BME280;34335;51.566;6.994;2023-05-02T12:12:43;101970.31;;;13.32;74.92
48553;BME280;34335;51.566;6.994;2023-05-02T12:15:10;101973.31;;;13.79;69.00
48553;BME280;34335;51.566;6.994;2023-05-02T12:17:39;101977.41;;;13.43;71.72
48553;BME280;34335;51.566;6.994;2023-05-02T12:20:08;101976.66;;;12.63;70.91
48553;BME280;34335;51.566;6.994;2023-05-02T12:22:35;101983.28;;;12.32;70.00
48553;BME280;34335;51.566;6.994;2023-05-02T12:25:01;101983.16;;;13.04;80.29
48553;BME280;34335;51.566;6.994;2023-05-02T12:27:28;101983.59;;;13.54;76.89
48553;BME280;34335;51.566;6.994;2023-05-02T12:29:53;101993.44;;;12.12;70.90
48553;BME280;34335;51.566;6.994;2023-05-02T12:32:33;101989.66;;;13.45;74.10
48553;BME280;34335;51.566;6.994;2023-05-02T12:34:59;102000.38;;;13.87;66.04
48553;BME280;34335;51.566;6.994;2023-05-02T12:37:26;101999.38;;;13.66;65.89
48553;BME280;34335;51.566;6.994;2023-05-02T12:39:52;101998.19;;;14.89;68.95
48553;BME280;34335;51.566;6.994;2023-05-02T12:42:20;101985.09;;;15.45;71.90
48553;BME280;34335;51.566;6.994;2023-05-02T12:44:47;101995.59;;;15.42;65.37
48553;BME280;34335;51.566;6.994;2023-05-02T12:47:14;101995.56;;;15.54;61.98
48553;BME280;34335;51.566;6.994;2023-05-02T12:49:54;101999.91;;;15.79;66.98
48553;BME280;34335;51.566;6.994;2023-05-02T12:52:50;102012.63;;;13.96;57.79
48553;BME280;34335;51.566;6.994;2023-05-02T12:55:24;102011.94;;;14.34;61.57
48553;BME280;34335;51.566;6.994;2023-05-02T12:58:01;102003.47;;;15.05;64.17
48553;BME280;34335;51.566;6.994;2023-05-02T13:00:28;102001.72;;;15.50;65.11
48553;BME280;34335;51.566;6.994;2023-05-02T13:02:54;102019.19;;;15.26;60.42
48553;BME280;34335;51.566;6.994;2023-05-02T13:05:20;102009.47;;;16.18;57.14
48553;BME280;34335;51.566;6.994;2023-05-02T13:07:45;102010.41;;;14.90;54.72
48553;BME280;34335;51.566;6.994;2023-05-02T13:10:11;102005.75;;;16.63;70.41
48553;BME280;34335;51.566;6.994;2023-05-02T13:12:37;102010.19;;;16.51;64.99
48553;BME280;34335;51.566;6.994;2023-05-02T13:15:04;102011.72;;;16.93;55.36
48553;BME280;34335;51.566;6.994;2023-05-02T13:17:29;101996.31;;;17.58;61.25
48553;BME280;34335;51.566;6.994;2023-05-02T13:19:55;101997.44;;;17.31;64.25
48553;BME280;34335;51.566;6.994;2023-05-02T13:22:20;101999.94;;;15.80;54.15
48553;BME280;34335;51.566;6.994;2023-05-02T13:24:46;101997.91;;;16.57;55.58
48553;BME280;34335;51.566;6.994;2023-05-02T13:27:11;101994.75;;;17.37;53.56